sensor_id;sensor_type;location;lat;lon;timestamp;P1;durP1;ratioP1;P2;durP2;ratioP2
2766;SDS011;1391;46.742;11.636;2022-11-20T00:01:03;1.70;;;1.20;;
2766;SDS011;1391;46.742;11.636;2022-11-20T00:03:31;1.47;;;1.10;;
2766;SDS011;1391;46.742;11.636;2022-11-20T00:06:01;2.07;;;1.30;;
2766;SDS011;1391;46.742;11.636;2022-11-20T00:08:28;2.30;;;1.40;;
2766;SDS011;1391;46.742;11.636;2022-11-20T00:10:56;2.70;;;1.30;;
2766;SDS011;1391;46.742;11.636;2022-11-20T00:13:23;1.27;;;1.07;;
2766;SDS011;1391;46.742;11.636;2022-11-20T00:15:56;1.20;;;1.00;;
2766;SDS011;1391;46.742;11.636;2022-11-20T00:18:24;2.17;;;1.50;;
2766;SDS011;1391;46.742;11.636;2022-11-20T00:20:51;1.50;;;1.27;;
2766;SDS011;1391;46.742;11.636;2022-11-20T00:23:20;4.73;;;1.60;;
2766;SDS011;1391;46.742;11.636;2022-11-20T00:25:47;1.53;;;1.17;;
2766;SDS011;1391;46.742;11.636;2022-11-20T00:28:14;1.47;;;1.37;;
2766;SDS011;1391;46.742;11.636;2022-11-20T00:30:41;2.87;;;1.10;;
2766;SDS011;1391;46.742;11.636;2022-11-20T00:33:09;4.20;;;1.10;;
2766;SDS011;1391;46.742;11.636;2022-11-20T00:35:36;1.20;;;0.90;;
2766;SDS011;1391;46.742;11.636;2022-11-20T00:38:03;1.87;;;1.20;;
2766;SDS011;1391;46.742;11.636;2022-11-20T00:40:32;1.70;;;1.13;;
2766;SDS011;1391;46.742;11.636;2022-11-20T00:43:00;1.40;;;1.10;;
2766;SDS011;1391;46.742;11.636;2022-11-20T00:45:27;1.77;;;1.30;;
2766;SDS011;1391;46.742;11.636;2022-11-20T00:47:54;2.43;;;1.40;;
2766;SDS011;1391;46.742;11.636;2022-11-20T00:50:22;1.80;;;1.20;;
2766;SDS011;1391;46.742;11.636;2022-11-20T00:52:49;1.87;;;1.17;;
2766;SDS011;1391;46.742;11.636;2022-11-20T00:55:16;1.80;;;1.10;;
2766;SDS011;1391;46.742;11.636;2022-11-20T00:57:45;1.40;;;1.30;;
2766;SDS011;1391;46.742;11.636;2022-11-20T01:00:13;3.47;;;1.30;;
2766;SDS011;1391;46.742;11.636;2022-11-20T01:02:41;3.00;;;1.40;;
2766;SDS011;1391;46.742;11.636;2022-11-20T01:05:08;2.00;;;1.20;;
2766;SDS011;1391;46.742;11.636;2022-11-20T01:07:35;2.10;;;1.37;;
2766;SDS011;1391;46.742;11.636;2022-11-20T01:10:03;1.40;;;1.30;;
2766;SDS011;1391;46.742;11.636;2022-11-20T01:12:31;1.23;;;1.10;;
2766;SDS011;1391;46.742;11.636;2022-11-20T01:15:00;1.20;;;1.10;;
2766;SDS011;1391;46.742;11.636;2022-11-20T01:17:28;2.33;;;1.50;;
2766;SDS011;1391;46.742;11.636;2022-11-20T01:19:55;2.23;;;1.40;;
2766;SDS011;1391;46.742;11.636;2022-11-20T01:22:22;2.30;;;1.33;;
2766;SDS011;1391;46.742;11.636;2022-11-20T01:24:50;3.20;;;1.10;;
2766;SDS011;1391;46.742;11.636;2022-11-20T01:27:17;2.77;;;1.37;;
2766;SDS011;1391;46.742;11.636;2022-11-20T01:29:44;3.87;;;1.67;;
2766;SDS011;1391;46.742;11.636;2022-11-20T01:32:14;1.23;;;1.13;;
2766;SDS011;1391;46.742;11.636;2022-11-20T01:34:42;1.80;;;1.40;;
2766;SDS011;1391;46.742;11.636;2022-11-20T01:37:09;3.67;;;1.23;;
2766;SDS011;1391;46.742;11.636;2022-11-20T01:39:36;1.77;;;1.40;;
2766;SDS011;1391;46.742;11.636;2022-11-20T01:42:03;1.60;;;1.27;;
2766;SDS011;1391;46.742;11.636;2022-11-20T01:44:55;1.63;;;1.10;;
2766;SDS011;1391;46.742;11.636;2022-11-20T01:47:27;1.80;;;1.30;;
2766;SDS011;1391;46.742;11.636;2022-11-20T01:50:01;2.00;;;1.40;;
2766;SDS011;1391;46.742;11.636;2022-11-20T01:52:33;2.10;;;1.40;;
2766;SDS011;1391;46.742;11.636;2022-11-20T01:55:05;4.13;;;1.47;;
2766;SDS011;1391;46.742;11.636;2022-11-20T01:57:35;1.70;;;1.40;;
2766;SDS011;1391;46.742;11.636;2022-11-20T02:00:04;1.40;;;1.30;;
2766;SDS011;1391;46.742;11.636;2022-11-20T02:02:38;2.37;;;1.43;;
2766;SDS011;1391;46.742;11.636;2022-11-20T02:05:11;1.67;;;1.23;;
2766;SDS011;1391;46.742;11.636;2022-11-20T02:07:45;1.17;;;1.07;;
2766;SDS011;1391;46.742;11.636;2022-11-20T02:10:14;2.20;;;1.40;;
2766;SDS011;1391;46.742;11.636;2022-11-20T02:12:42;2.07;;;1.50;;
2766;SDS011;1391;46.742;11.636;2022-11-20T02:15:27;2.87;;;1.40;;
2766;SDS011;1391;46.742;11.636;2022-11-20T02:17:55;3.73;;;1.33;;
2766;SDS011;1391;46.742;11.636;2022-11-20T02:20:23;2.03;;;1.30;;
2766;SDS011;1391;46.742;11.636;2022-11-20T02:22:53;1.73;;;1.30;;
2766;SDS011;1391;46.742;11.636;2022-11-20T02:25:26;2.40;;;1.30;;
2766;SDS011;1391;46.742;11.636;2022-11-20T02:27:56;1.80;;;1.47;;
2766;SDS011;1391;46.742;11.636;2022-11-20T02:30:23;4.23;;;1.50;;
2766;SDS011;1391;46.742;11.636;2022-11-20T02:32:51;1.83;;;1.50;;
2766;SDS011;1391;46.742;11.636;2022-11-20T02:35:41;1.77;;;1.20;;
2766;SDS011;1391;46.742;11.636;2022-11-20T02:38:11;3.00;;;1.43;;
2766;SDS011;1391;46.742;11.636;2022-11-20T02:40:41;1.30;;;1.20;;
2766;SDS011;1391;46.742;11.636;2022-11-20T02:43:09;2.47;;;1.50;;
2766;SDS011;1391;46.742;11.636;2022-11-20T02:45:37;1.20;;;1.10;;
2766;SDS011;1391;46.742;11.636;2022-11-20T02:48:05;1.57;;;1.20;;
2766;SDS011;1391;46.742;11.636;2022-11-20T02:50:36;1.30;;;1.20;;
2766;SDS011;1391;46.742;11.636;2022-11-20T02:53:05;1.90;;;1.17;;
2766;SDS011;1391;46.742;11.636;2022-11-20T02:55:33;2.63;;;1.53;;
2766;SDS011;1391;46.742;11.636;2022-11-20T02:58:02;1.27;;;1.17;;
2766;SDS011;1391;46.742;11.636;2022-11-20T03:00:29;1.93;;;1.30;;
2766;SDS011;1391;46.742;11.636;2022-11-20T03:02:57;1.43;;;1.30;;
2766;SDS011;1391;46.742;11.636;2022-11-20T03:05:24;3.60;;;1.30;;
2766;SDS011;1391;46.742;11.636;2022-11-20T03:07:51;2.20;;;1.60;;
2766;SDS011;1391;46.742;11.636;2022-11-20T03:10:19;3.77;;;1.33;;
2766;SDS011;1391;46.742;11.636;2022-11-20T03:12:52;1.30;;;1.20;;
2766;SDS011;1391;46.742;11.636;2022-11-20T03:15:22;1.20;;;1.10;;
2766;SDS011;1391;46.742;11.636;2022-11-20T03:17:52;2.80;;;1.47;;
2766;SDS011;1391;46.742;11.636;2022-11-20T03:20:21;2.07;;;1.30;;
2766;SDS011;1391;46.742;11.636;2022-11-20T03:22:49;3.63;;;1.50;;
2766;SDS011;1391;46.742;11.636;2022-11-20T03:25:16;1.37;;;1.20;;
2766;SDS011;1391;46.742;11.636;2022-11-20T03:27:44;4.70;;;1.57;;
2766;SDS011;1391;46.742;11.636;2022-11-20T03:30:11;1.67;;;1.20;;
2766;SDS011;1391;46.742;11.636;2022-11-20T03:32:41;1.77;;;1.30;;
2766;SDS011;1391;46.742;11.636;2022-11-20T03:35:09;1.60;;;1.40;;
2766;SDS011;1391;46.742;11.636;2022-11-20T03:37:36;1.73;;;1.27;;
2766;SDS011;1391;46.742;11.636;2022-11-20T03:40:04;1.43;;;1.27;;
2766;SDS011;1391;46.742;11.636;2022-11-20T03:42:33;2.47;;;1.10;;
2766;SDS011;1391;46.742;11.636;2022-11-20T03:45:13;1.70;;;1.30;;
2766;SDS011;1391;46.742;11.636;2022-11-20T03:47:43;1.80;;;1.37;;
2766;SDS011;1391;46.742;11.636;2022-11-20T03:50:11;1.77;;;1.30;;
2766;SDS011;1391;46.742;11.636;2022-11-20T03:52:40;1.83;;;1.37;;
2766;SDS011;1391;46.742;11.636;2022-11-20T03:55:07;1.53;;;1.40;;
2766;SDS011;1391;46.742;11.636;2022-11-20T03:57:35;2.43;;;1.43;;
2766;SDS011;1391;46.742;11.636;2022-11-20T04:00:03;2.43;;;1.30;;
2766;SDS011;1391;46.742;11.636;2022-11-20T04:02:31;1.53;;;1.40;;
2766;SDS011;1391;46.742;11.636;2022-11-20T04:05:00;2.13;;;1.40;;
2766;SDS011;1391;46.742;11.636;2022-11-20T04:07:27;2.43;;;1.60;;
2766;SDS011;1391;46.742;11.636;2022-11-20T04:09:55;2.43;;;1.40;;
2766;SDS011;1391;46.742;11.636;2022-11-20T04:12:22;2.00;;;1.50;;
2766;SDS011;1391;46.742;11.636;2022-11-20T04:14:50;2.30;;;1.50;;
2766;SDS011;1391;46.742;11.636;2022-11-20T04:17:17;3.47;;;1.50;;
2766;SDS011;1391;46.742;11.636;2022-11-20T04:19:44;1.10;;;1.00;;
2766;SDS011;1391;46.742;11.636;2022-11-20T04:22:14;1.70;;;1.43;;
2766;SDS011;1391;46.742;11.636;2022-11-20T04:24:41;2.50;;;1.30;;
2766;SDS011;1391;46.742;11.636;2022-11-20T04:27:08;1.63;;;1.47;;
2766;SDS011;1391;46.742;11.636;2022-11-20T04:29:35;2.13;;;1.43;;
2766;SDS011;1391;46.742;11.636;2022-11-20T04:32:03;3.17;;;1.53;;
2766;SDS011;1391;46.742;11.636;2022-11-20T04:34:30;1.93;;;1.70;;
2766;SDS011;1391;46.742;11.636;2022-11-20T04:36:58;1.60;;;1.40;;
2766;SDS011;1391;46.742;11.636;2022-11-20T04:39:26;1.87;;;1.73;;
2766;SDS011;1391;46.742;11.636;2022-11-20T04:41:54;1.53;;;1.43;;
2766;SDS011;1391;46.742;11.636;2022-11-20T04:44:35;1.43;;;1.30;;
2766;SDS011;1391;46.742;11.636;2022-11-20T04:47:02;2.23;;;1.43;;
2766;SDS011;1391;46.742;11.636;2022-11-20T04:49:30;1.53;;;1.43;;
2766;SDS011;1391;46.742;11.636;2022-11-20T04:51:57;2.80;;;1.70;;
2766;SDS011;1391;46.742;11.636;2022-11-20T04:54:26;4.13;;;1.80;;
2766;SDS011;1391;46.742;11.636;2022-11-20T04:56:53;2.73;;;1.57;;
2766;SDS011;1391;46.742;11.636;2022-11-20T04:59:21;2.03;;;1.50;;
2766;SDS011;1391;46.742;11.636;2022-11-20T05:01:48;2.67;;;1.47;;
2766;SDS011;1391;46.742;11.636;2022-11-20T05:04:16;2.40;;;1.53;;
2766;SDS011;1391;46.742;11.636;2022-11-20T05:06:43;2.20;;;1.63;;
2766;SDS011;1391;46.742;11.636;2022-11-20T05:09:11;2.53;;;1.67;;
2766;SDS011;1391;46.742;11.636;2022-11-20T05:11:40;2.60;;;1.63;;
2766;SDS011;1391;46.742;11.636;2022-11-20T05:14:07;2.73;;;2.00;;
2766;SDS011;1391;46.742;11.636;2022-11-20T05:16:35;2.97;;;2.03;;
2766;SDS011;1391;46.742;11.636;2022-11-20T05:19:02;2.77;;;2.00;;
2766;SDS011;1391;46.742;11.636;2022-11-20T05:21:30;4.20;;;1.80;;
2766;SDS011;1391;46.742;11.636;2022-11-20T05:23:57;5.70;;;1.60;;
2766;SDS011;1391;46.742;11.636;2022-11-20T05:26:25;3.47;;;1.80;;
2766;SDS011;1391;46.742;11.636;2022-11-20T05:28:54;2.90;;;1.83;;
2766;SDS011;1391;46.742;11.636;2022-11-20T05:31:22;1.97;;;1.77;;
2766;SDS011;1391;46.742;11.636;2022-11-20T05:33:51;1.70;;;1.60;;
2766;SDS011;1391;46.742;11.636;2022-11-20T05:36:19;4.83;;;1.83;;
2766;SDS011;1391;46.742;11.636;2022-11-20T05:38:49;1.70;;;1.47;;
2766;SDS011;1391;46.742;11.636;2022-11-20T05:41:17;2.67;;;1.60;;
2766;SDS011;1391;46.742;11.636;2022-11-20T05:43:46;2.60;;;1.70;;
2766;SDS011;1391;46.742;11.636;2022-11-20T05:46:17;3.73;;;1.63;;
2766;SDS011;1391;46.742;11.636;2022-11-20T05:48:46;1.40;;;1.30;;
2766;SDS011;1391;46.742;11.636;2022-11-20T05:51:16;4.80;;;2.30;;
2766;SDS011;1391;46.742;11.636;2022-11-20T05:53:45;1.43;;;1.30;;
2766;SDS011;1391;46.742;11.636;2022-11-20T05:56:14;1.83;;;1.40;;
2766;SDS011;1391;46.742;11.636;2022-11-20T05:58:44;1.53;;;1.30;;
2766;SDS011;1391;46.742;11.636;2022-11-20T06:01:14;1.73;;;1.40;;
2766;SDS011;1391;46.742;11.636;2022-11-20T06:03:45;4.03;;;1.60;;
2766;SDS011;1391;46.742;11.636;2022-11-20T06:06:16;2.60;;;1.90;;
2766;SDS011;1391;46.742;11.636;2022-11-20T06:08:44;3.63;;;1.80;;
2766;SDS011;1391;46.742;11.636;2022-11-20T06:11:12;2.73;;;1.97;;
2766;SDS011;1391;46.742;11.636;2022-11-20T06:13:41;2.03;;;1.70;;
2766;SDS011;1391;46.742;11.636;2022-11-20T06:16:09;2.00;;;1.50;;
2766;SDS011;1391;46.742;11.636;2022-11-20T06:18:39;2.63;;;1.50;;
2766;SDS011;1391;46.742;11.636;2022-11-20T06:21:08;4.57;;;1.53;;
2766;SDS011;1391;46.742;11.636;2022-11-20T06:23:38;4.53;;;1.73;;
2766;SDS011;1391;46.742;11.636;2022-11-20T06:26:06;2.90;;;1.60;;
2766;SDS011;1391;46.742;11.636;2022-11-20T06:28:36;2.03;;;1.53;;
2766;SDS011;1391;46.742;11.636;2022-11-20T06:31:05;1.83;;;1.50;;
2766;SDS011;1391;46.742;11.636;2022-11-20T06:33:34;1.47;;;1.33;;
2766;SDS011;1391;46.742;11.636;2022-11-20T06:36:04;3.03;;;1.40;;
2766;SDS011;1391;46.742;11.636;2022-11-20T06:38:32;2.33;;;1.67;;
2766;SDS011;1391;46.742;11.636;2022-11-20T06:40:59;1.83;;;1.67;;
2766;SDS011;1391;46.742;11.636;2022-11-20T06:43:28;2.13;;;1.57;;
2766;SDS011;1391;46.742;11.636;2022-11-20T06:45:56;1.93;;;1.63;;
2766;SDS011;1391;46.742;11.636;2022-11-20T06:48:25;1.73;;;1.60;;
2766;SDS011;1391;46.742;11.636;2022-11-20T06:50:53;3.57;;;2.00;;
2766;SDS011;1391;46.742;11.636;2022-11-20T06:53:22;2.97;;;1.77;;
2766;SDS011;1391;46.742;11.636;2022-11-20T06:55:51;2.00;;;1.80;;
2766;SDS011;1391;46.742;11.636;2022-11-20T06:58:23;2.73;;;1.90;;
2766;SDS011;1391;46.742;11.636;2022-11-20T07:00:54;1.80;;;1.70;;
2766;SDS011;1391;46.742;11.636;2022-11-20T07:03:25;2.27;;;1.90;;
2766;SDS011;1391;46.742;11.636;2022-11-20T07:05:54;3.17;;;2.50;;
2766;SDS011;1391;46.742;11.636;2022-11-20T07:08:23;2.73;;;2.20;;
2766;SDS011;1391;46.742;11.636;2022-11-20T07:10:51;3.27;;;2.30;;
2766;SDS011;1391;46.742;11.636;2022-11-20T07:13:19;3.87;;;3.10;;
2766;SDS011;1391;46.742;11.636;2022-11-20T07:15:47;4.93;;;3.13;;
2766;SDS011;1391;46.742;11.636;2022-11-20T07:18:15;6.43;;;3.17;;
2766;SDS011;1391;46.742;11.636;2022-11-20T07:20:42;7.50;;;4.27;;
2766;SDS011;1391;46.742;11.636;2022-11-20T07:23:10;8.63;;;4.13;;
2766;SDS011;1391;46.742;11.636;2022-11-20T07:25:39;5.97;;;4.10;;
2766;SDS011;1391;46.742;11.636;2022-11-20T07:28:07;6.53;;;4.10;;
2766;SDS011;1391;46.742;11.636;2022-11-20T07:30:35;10.63;;;4.37;;
2766;SDS011;1391;46.742;11.636;2022-11-20T07:33:03;4.77;;;3.20;;
2766;SDS011;1391;46.742;11.636;2022-11-20T07:35:31;6.23;;;2.40;;
2766;SDS011;1391;46.742;11.636;2022-11-20T07:38:02;5.03;;;2.30;;
2766;SDS011;1391;46.742;11.636;2022-11-20T07:40:30;2.10;;;1.90;;
2766;SDS011;1391;46.742;11.636;2022-11-20T07:42:59;3.30;;;2.13;;
2766;SDS011;1391;46.742;11.636;2022-11-20T07:45:26;2.67;;;1.97;;
2766;SDS011;1391;46.742;11.636;2022-11-20T07:47:54;3.83;;;2.37;;
2766;SDS011;1391;46.742;11.636;2022-11-20T07:50:22;2.53;;;2.33;;
2766;SDS011;1391;46.742;11.636;2022-11-20T07:52:49;3.40;;;2.23;;
2766;SDS011;1391;46.742;11.636;2022-11-20T07:55:17;3.07;;;2.17;;
2766;SDS011;1391;46.742;11.636;2022-11-20T07:57:44;4.50;;;2.60;;
2766;SDS011;1391;46.742;11.636;2022-11-20T08:00:14;3.67;;;2.50;;
2766;SDS011;1391;46.742;11.636;2022-11-20T08:02:42;8.07;;;2.37;;
2766;SDS011;1391;46.742;11.636;2022-11-20T08:05:09;3.57;;;2.43;;
2766;SDS011;1391;46.742;11.636;2022-11-20T08:07:37;7.77;;;3.93;;
2766;SDS011;1391;46.742;11.636;2022-11-20T08:10:09;3.77;;;2.60;;
2766;SDS011;1391;46.742;11.636;2022-11-20T08:12:43;3.50;;;2.17;;
2766;SDS011;1391;46.742;11.636;2022-11-20T08:15:30;7.30;;;4.40;;
2766;SDS011;1391;46.742;11.636;2022-11-20T08:18:01;9.77;;;5.20;;
2766;SDS011;1391;46.742;11.636;2022-11-20T08:20:30;13.40;;;5.10;;
2766;SDS011;1391;46.742;11.636;2022-11-20T08:22:59;11.43;;;5.70;;
2766;SDS011;1391;46.742;11.636;2022-11-20T08:25:27;10.17;;;5.13;;
2766;SDS011;1391;46.742;11.636;2022-11-20T08:27:57;10.20;;;5.10;;
2766;SDS011;1391;46.742;11.636;2022-11-20T08:30:26;8.70;;;5.10;;
2766;SDS011;1391;46.742;11.636;2022-11-20T08:32:59;15.00;;;6.00;;
2766;SDS011;1391;46.742;11.636;2022-11-20T08:35:32;10.93;;;6.27;;
2766;SDS011;1391;46.742;11.636;2022-11-20T08:38:01;10.13;;;5.80;;
2766;SDS011;1391;46.742;11.636;2022-11-20T08:40:28;7.67;;;5.20;;
2766;SDS011;1391;46.742;11.636;2022-11-20T08:42:56;10.87;;;5.40;;
2766;SDS011;1391;46.742;11.636;2022-11-20T08:45:24;7.47;;;4.40;;
2766;SDS011;1391;46.742;11.636;2022-11-20T08:47:52;8.53;;;4.13;;
2766;SDS011;1391;46.742;11.636;2022-11-20T08:50:20;7.60;;;3.73;;
2766;SDS011;1391;46.742;11.636;2022-11-20T08:52:48;5.73;;;3.87;;
2766;SDS011;1391;46.742;11.636;2022-11-20T08:55:15;7.00;;;3.97;;
2766;SDS011;1391;46.742;11.636;2022-11-20T08:57:43;6.57;;;4.03;;
2766;SDS011;1391;46.742;11.636;2022-11-20T09:00:10;7.93;;;4.53;;
2766;SDS011;1391;46.742;11.636;2022-11-20T09:02:39;10.60;;;4.80;;
2766;SDS011;1391;46.742;11.636;2022-11-20T09:05:07;6.07;;;3.60;;
2766;SDS011;1391;46.742;11.636;2022-11-20T09:07:36;6.70;;;4.37;;
2766;SDS011;1391;46.742;11.636;2022-11-20T09:10:06;5.80;;;3.80;;
2766;SDS011;1391;46.742;11.636;2022-11-20T09:12:35;5.60;;;3.90;;
2766;SDS011;1391;46.742;11.636;2022-11-20T09:15:02;7.27;;;4.00;;
2766;SDS011;1391;46.742;11.636;2022-11-20T09:17:31;10.77;;;3.90;;
2766;SDS011;1391;46.742;11.636;2022-11-20T09:19:59;8.20;;;3.87;;
2766;SDS011;1391;46.742;11.636;2022-11-20T09:22:26;7.83;;;3.77;;
2766;SDS011;1391;46.742;11.636;2022-11-20T09:24:55;9.30;;;3.93;;
2766;SDS011;1391;46.742;11.636;2022-11-20T09:27:22;5.73;;;3.77;;
2766;SDS011;1391;46.742;11.636;2022-11-20T09:29:49;4.87;;;3.67;;
2766;SDS011;1391;46.742;11.636;2022-11-20T09:32:17;6.77;;;4.37;;
2766;SDS011;1391;46.742;11.636;2022-11-20T09:34:44;8.53;;;4.50;;
2766;SDS011;1391;46.742;11.636;2022-11-20T09:37:12;6.87;;;4.40;;
2766;SDS011;1391;46.742;11.636;2022-11-20T09:39:39;6.67;;;3.60;;
2766;SDS011;1391;46.742;11.636;2022-11-20T09:42:27;5.30;;;3.80;;
2766;SDS011;1391;46.742;11.636;2022-11-20T09:45:13;6.80;;;3.40;;
2766;SDS011;1391;46.742;11.636;2022-11-20T09:47:52;5.43;;;3.83;;
2766;SDS011;1391;46.742;11.636;2022-11-20T09:50:45;6.57;;;3.60;;
2766;SDS011;1391;46.742;11.636;2022-11-20T09:53:22;3.40;;;1.80;;
2766;SDS011;1391;46.742;11.636;2022-11-20T09:55:59;3.90;;;2.67;;
2766;SDS011;1391;46.742;11.636;2022-11-20T09:58:32;4.97;;;2.30;;
2766;SDS011;1391;46.742;11.636;2022-11-20T10:01:09;4.50;;;1.90;;
2766;SDS011;1391;46.742;11.636;2022-11-20T10:03:43;6.03;;;3.43;;
2766;SDS011;1391;46.742;11.636;2022-11-20T10:06:21;6.03;;;3.50;;
2766;SDS011;1391;46.742;11.636;2022-11-20T10:08:59;6.60;;;4.00;;
2766;SDS011;1391;46.742;11.636;2022-11-20T10:11:42;4.20;;;2.03;;
2766;SDS011;1391;46.742;11.636;2022-11-20T10:14:20;5.27;;;2.90;;
2766;SDS011;1391;46.742;11.636;2022-11-20T10:17:01;2.90;;;2.17;;
2766;SDS011;1391;46.742;11.636;2022-11-20T10:19:44;2.90;;;2.00;;
2766;SDS011;1391;46.742;11.636;2022-11-20T10:22:29;4.63;;;2.93;;
2766;SDS011;1391;46.742;11.636;2022-11-20T10:25:12;5.63;;;3.70;;
2766;SDS011;1391;46.742;11.636;2022-11-20T10:27:57;2.77;;;1.97;;
2766;SDS011;1391;46.742;11.636;2022-11-20T10:30:45;4.70;;;2.27;;
2766;SDS011;1391;46.742;11.636;2022-11-20T10:33:24;2.40;;;1.73;;
2766;SDS011;1391;46.742;11.636;2022-11-20T10:35:55;3.60;;;1.30;;
2766;SDS011;1391;46.742;11.636;2022-11-20T10:38:34;1.50;;;1.10;;
2766;SDS011;1391;46.742;11.636;2022-11-20T10:41:05;4.10;;;1.90;;
2766;SDS011;1391;46.742;11.636;2022-11-20T10:43:53;3.43;;;2.03;;
2766;SDS011;1391;46.742;11.636;2022-11-20T10:46:34;3.80;;;2.30;;
2766;SDS011;1391;46.742;11.636;2022-11-20T10:49:10;2.50;;;2.20;;
2766;SDS011;1391;46.742;11.636;2022-11-20T10:51:42;3.13;;;1.30;;
2766;SDS011;1391;46.742;11.636;2022-11-20T10:54:25;2.17;;;1.00;;
2766;SDS011;1391;46.742;11.636;2022-11-20T10:57:03;0.70;;;0.70;;
2766;SDS011;1391;46.742;11.636;2022-11-20T10:59:47;5.50;;;2.23;;
2766;SDS011;1391;46.742;11.636;2022-11-20T11:02:34;6.07;;;2.80;;
2766;SDS011;1391;46.742;11.636;2022-11-20T11:05:16;4.87;;;2.53;;
2766;SDS011;1391;46.742;11.636;2022-11-20T11:07:57;3.10;;;2.13;;
2766;SDS011;1391;46.742;11.636;2022-11-20T11:10:27;6.27;;;4.07;;
2766;SDS011;1391;46.742;11.636;2022-11-20T11:13:03;2.20;;;2.00;;
2766;SDS011;1391;46.742;11.636;2022-11-20T11:15:36;1.60;;;1.50;;
2766;SDS011;1391;46.742;11.636;2022-11-20T11:18:09;1.60;;;1.10;;
2766;SDS011;1391;46.742;11.636;2022-11-20T11:20:38;1.00;;;0.80;;
2766;SDS011;1391;46.742;11.636;2022-11-20T11:23:10;1.93;;;1.40;;
2766;SDS011;1391;46.742;11.636;2022-11-20T11:25:58;2.43;;;2.20;;
2766;SDS011;1391;46.742;11.636;2022-11-20T11:28:27;2.67;;;2.00;;
2766;SDS011;1391;46.742;11.636;2022-11-20T11:30:55;1.13;;;1.07;;
2766;SDS011;1391;46.742;11.636;2022-11-20T11:33:25;1.40;;;1.30;;
2766;SDS011;1391;46.742;11.636;2022-11-20T11:35:54;1.57;;;1.03;;
2766;SDS011;1391;46.742;11.636;2022-11-20T11:38:28;3.10;;;1.10;;
2766;SDS011;1391;46.742;11.636;2022-11-20T11:40:59;6.90;;;5.53;;
2766;SDS011;1391;46.742;11.636;2022-11-20T11:43:28;2.67;;;2.20;;
2766;SDS011;1391;46.742;11.636;2022-11-20T11:46:23;1.30;;;1.20;;
2766;SDS011;1391;46.742;11.636;2022-11-20T11:49:01;5.60;;;4.93;;
2766;SDS011;1391;46.742;11.636;2022-11-20T11:51:45;5.30;;;4.40;;
2766;SDS011;1391;46.742;11.636;2022-11-20T11:54:26;3.50;;;2.97;;
2766;SDS011;1391;46.742;11.636;2022-11-20T11:57:03;3.33;;;2.53;;
2766;SDS011;1391;46.742;11.636;2022-11-20T11:59:41;3.40;;;1.27;;
2766;SDS011;1391;46.742;11.636;2022-11-20T12:02:27;1.00;;;0.90;;
2766;SDS011;1391;46.742;11.636;2022-11-20T12:05:08;1.70;;;1.57;;
2766;SDS011;1391;46.742;11.636;2022-11-20T12:07:45;1.03;;;0.83;;
2766;SDS011;1391;46.742;11.636;2022-11-20T12:10:17;0.70;;;0.70;;
2766;SDS011;1391;46.742;11.636;2022-11-20T12:12:50;2.57;;;1.90;;
2766;SDS011;1391;46.742;11.636;2022-11-20T12:15:25;1.83;;;1.40;;
2766;SDS011;1391;46.742;11.636;2022-11-20T12:17:56;2.50;;;1.60;;
2766;SDS011;1391;46.742;11.636;2022-11-20T12:20:26;2.67;;;1.83;;
2766;SDS011;1391;46.742;11.636;2022-11-20T12:22:59;2.87;;;1.63;;
2766;SDS011;1391;46.742;11.636;2022-11-20T12:25:36;2.30;;;1.80;;
2766;SDS011;1391;46.742;11.636;2022-11-20T12:34:13;2.67;;;1.47;;
2766;SDS011;1391;46.742;11.636;2022-11-20T12:37:02;1.33;;;1.10;;
2766;SDS011;1391;46.742;11.636;2022-11-20T12:39:46;1.67;;;1.53;;
2766;SDS011;1391;46.742;11.636;2022-11-20T12:42:20;2.20;;;0.97;;
2766;SDS011;1391;46.742;11.636;2022-11-20T12:45:22;1.70;;;1.00;;
2766;SDS011;1391;46.742;11.636;2022-11-20T12:48:17;1.00;;;0.90;;
2766;SDS011;1391;46.742;11.636;2022-11-20T12:54:08;0.90;;;0.80;;
2766;SDS011;1391;46.742;11.636;2022-11-20T12:57:09;1.00;;;0.93;;
2766;SDS011;1391;46.742;11.636;2022-11-20T12:59:49;1.83;;;1.60;;
2766;SDS011;1391;46.742;11.636;2022-11-20T13:02:44;1.77;;;1.50;;
2766;SDS011;1391;46.742;11.636;2022-11-20T13:05:55;1.30;;;1.20;;
2766;SDS011;1391;46.742;11.636;2022-11-20T13:08:32;3.07;;;2.43;;
2766;SDS011;1391;46.742;11.636;2022-11-20T13:11:06;1.30;;;1.20;;
2766;SDS011;1391;46.742;11.636;2022-11-20T13:13:43;4.80;;;1.00;;
2766;SDS011;1391;46.742;11.636;2022-11-20T13:16:28;1.23;;;0.70;;
2766;SDS011;1391;46.742;11.636;2022-11-20T13:19:03;0.70;;;0.57;;
2766;SDS011;1391;46.742;11.636;2022-11-20T13:21:35;1.63;;;1.10;;
2766;SDS011;1391;46.742;11.636;2022-11-20T13:24:05;1.20;;;1.10;;
2766;SDS011;1391;46.742;11.636;2022-11-20T13:26:47;0.90;;;0.90;;
2766;SDS011;1391;46.742;11.636;2022-11-20T13:29:16;1.00;;;0.90;;
2766;SDS011;1391;46.742;11.636;2022-11-20T13:31:45;1.50;;;0.97;;
2766;SDS011;1391;46.742;11.636;2022-11-20T13:34:22;0.70;;;0.70;;
2766;SDS011;1391;46.742;11.636;2022-11-20T13:36:54;4.03;;;1.30;;
2766;SDS011;1391;46.742;11.636;2022-11-20T13:39:25;4.40;;;0.77;;
2766;SDS011;1391;46.742;11.636;2022-11-20T13:41:56;4.47;;;2.13;;
2766;SDS011;1391;46.742;11.636;2022-11-20T13:44:27;1.77;;;1.27;;
2766;SDS011;1391;46.742;11.636;2022-11-20T13:47:03;0.90;;;0.77;;
2766;SDS011;1391;46.742;11.636;2022-11-20T13:49:31;0.97;;;0.60;;
2766;SDS011;1391;46.742;11.636;2022-11-20T13:52:04;1.53;;;0.80;;
2766;SDS011;1391;46.742;11.636;2022-11-20T13:54:59;1.07;;;0.90;;
2766;SDS011;1391;46.742;11.636;2022-11-20T13:57:58;2.67;;;1.43;;
2766;SDS011;1391;46.742;11.636;2022-11-20T14:00:41;2.80;;;1.60;;
2766;SDS011;1391;46.742;11.636;2022-11-20T14:03:15;4.17;;;1.70;;
2766;SDS011;1391;46.742;11.636;2022-11-20T14:05:49;1.50;;;1.10;;
2766;SDS011;1391;46.742;11.636;2022-11-20T14:08:23;1.33;;;1.10;;
2766;SDS011;1391;46.742;11.636;2022-11-20T14:11:04;1.20;;;1.10;;
2766;SDS011;1391;46.742;11.636;2022-11-20T14:13:49;2.10;;;1.20;;
2766;SDS011;1391;46.742;11.636;2022-11-20T14:16:26;1.43;;;1.03;;
2766;SDS011;1391;46.742;11.636;2022-11-20T14:18:56;2.57;;;1.40;;
2766;SDS011;1391;46.742;11.636;2022-11-20T14:21:49;1.47;;;1.37;;
2766;SDS011;1391;46.742;11.636;2022-11-20T14:24:20;3.40;;;2.60;;
2766;SDS011;1391;46.742;11.636;2022-11-20T14:26:49;6.57;;;3.23;;
2766;SDS011;1391;46.742;11.636;2022-11-20T14:29:21;5.53;;;3.10;;
2766;SDS011;1391;46.742;11.636;2022-11-20T14:31:53;2.30;;;1.37;;
2766;SDS011;1391;46.742;11.636;2022-11-20T14:34:24;1.90;;;1.00;;
2766;SDS011;1391;46.742;11.636;2022-11-20T14:36:57;1.27;;;1.00;;
2766;SDS011;1391;46.742;11.636;2022-11-20T14:39:27;0.80;;;0.80;;
2766;SDS011;1391;46.742;11.636;2022-11-20T14:41:58;0.83;;;0.83;;
2766;SDS011;1391;46.742;11.636;2022-11-20T14:44:29;1.77;;;1.00;;
2766;SDS011;1391;46.742;11.636;2022-11-20T14:46:59;1.57;;;1.30;;
2766;SDS011;1391;46.742;11.636;2022-11-20T14:49:29;8.00;;;1.10;;
2766;SDS011;1391;46.742;11.636;2022-11-20T14:51:58;1.53;;;1.23;;
2766;SDS011;1391;46.742;11.636;2022-11-20T14:54:28;2.60;;;1.60;;
2766;SDS011;1391;46.742;11.636;2022-11-20T14:56:56;3.63;;;2.13;;
2766;SDS011;1391;46.742;11.636;2022-11-20T14:59:28;6.63;;;3.77;;
2766;SDS011;1391;46.742;11.636;2022-11-20T15:01:59;4.27;;;3.00;;
2766;SDS011;1391;46.742;11.636;2022-11-20T15:04:29;6.37;;;4.47;;
2766;SDS011;1391;46.742;11.636;2022-11-20T15:06:58;6.37;;;5.00;;
2766;SDS011;1391;46.742;11.636;2022-11-20T15:09:26;6.00;;;4.23;;
2766;SDS011;1391;46.742;11.636;2022-11-20T15:11:54;1.80;;;1.50;;
2766;SDS011;1391;46.742;11.636;2022-11-20T15:14:24;1.87;;;1.60;;
2766;SDS011;1391;46.742;11.636;2022-11-20T15:16:54;3.30;;;2.17;;
2766;SDS011;1391;46.742;11.636;2022-11-20T15:19:22;5.53;;;3.27;;
2766;SDS011;1391;46.742;11.636;2022-11-20T15:21:51;4.57;;;3.37;;
2766;SDS011;1391;46.742;11.636;2022-11-20T15:24:19;3.33;;;2.03;;
2766;SDS011;1391;46.742;11.636;2022-11-20T15:26:47;4.07;;;3.30;;
2766;SDS011;1391;46.742;11.636;2022-11-20T15:29:15;4.23;;;3.03;;
2766;SDS011;1391;46.742;11.636;2022-11-20T15:31:45;4.27;;;2.40;;
2766;SDS011;1391;46.742;11.636;2022-11-20T15:34:15;3.40;;;2.50;;
2766;SDS011;1391;46.742;11.636;2022-11-20T15:36:43;2.07;;;1.70;;